Airfield :
LOGIN :

Register | Disclaimer

   EN    FR    IT 

 










Legend :    VFR   Marginal VFR   IFR   Intensive IFR   Very Intensive IFR
Visi :
Ceiling :
>= 8 km
>= 3000ft
5 to 8 km
1000 to 3000 ft
1500m to 5 km
500 to 1000 ft
800 to 1500m
200 to 500 ft
< 800m
< 200 ft
Symbols :   Thunderstorms  Fog  Heavy snow  Heavy precipitations  Wind > 20 kt
SIGMETs :     Misc.  Thunderstorms  Icing  Turbulence  Mountain Waves  Volcanic Ashes






- Airport Elevation : 295 ft
- IATA code : ORN


DAOO - Es senia - Oran

CURRENT METAR :
  • 082300Z 24015KT 9999 -RA BKN026 13/08 Q1020

EXPIRED METARs :
  • 082230Z 25010KT 9999 SCT026 14/08 Q1020
  • 082200Z 25016KT 9999 FEW026 14/08 Q1020
  • 082130Z 24016G27KT 9999 FEW026 14/08 Q1020
  • 082100Z 24016G27KT 9999 FEW026 14/08 Q1019
  • 082030Z 24013KT 9999 FEW026 14/09 Q1020

TAF TAF DAOO
Valid from the 08 at 18:00 until the 09 at 18:00 UTC


081700Z 0818/0918 24014KT 9999 FEW020 SCT026
TEMPO 0818/0824 26020G30KT
PROB40
TEMPO 0900/0909 RA BKN023
BECMG 0912/0915 FEW026
TEMPO 0912/0918 27015G30KT



MET'MAP, your aeronautical weather chart ! - Copyright ORBIFLY December 2007 - Disclaimer

ORBIFLY MET'MAP TEAM :

Programming & Development : Alexandra Zaïnal
Concept & original design : Baudouin d'Aumeries
Assistance for programming : Marc-Olivier Méhu
Technical & hardware support : Manuel Goepfert

Contact : metmap@orbifly.com




SOURCES & CREDITS :

   NOAA